Terminal Aerodrome Forecast
Issued by NWS

Home | Current Version | Previous Version | Graphics & Text | Print | Product List | Glossary On
Versions: 1 2 3 4 5 6 7 8 9 10 11 12 13 14 15
000
FTUS43 KGRB 090500
TAFATW
TAF
KATW 090532Z 0906/1006 33006KT P6SM SCT018 BKN100
      TEMPO 0906/0910 -RA SCT006 BKN020
     FM091000 30004KT P6SM VCSH SCT020 BKN040
     FM091500 30008KT P6SM SCT035 BKN070
     FM091700 30009G14KT P6SM VCSH SCT030 BKN070
     FM100100 VRB03KT P6SM SCT070 SCT100=

USA.gov is the U.S. government's official web portal to all federal, state and local government web resources and services.